createdAt,value
2023-03-01T00:01:10.206Z,11.13
2023-03-01T00:06:36.214Z,12.68
2023-03-01T00:12:01.196Z,13.40
2023-03-01T00:17:29.215Z,12.05
2023-03-01T00:22:53.253Z,13.48
2023-03-01T00:28:18.192Z,12.63
2023-03-01T00:33:45.226Z,13.70
2023-03-01T00:39:12.282Z,13.25
2023-03-01T00:44:36.195Z,13.25
2023-03-01T00:50:04.213Z,13.88
2023-03-01T00:55:29.226Z,13.15
2023-03-01T01:00:54.221Z,13.07
2023-03-01T01:06:21.244Z,14.85
2023-03-01T01:11:46.227Z,14.88
2023-03-01T01:17:10.248Z,14.25
2023-03-01T01:22:38.199Z,16.38
2023-03-01T01:28:02.251Z,15.05
2023-03-01T01:33:27.244Z,14.73
2023-03-01T01:38:58.227Z,16.38
2023-03-01T01:44:29.206Z,15.05
2023-03-01T01:50:04.241Z,15.32
2023-03-01T01:55:35.257Z,14.15
2023-03-01T02:01:00.225Z,15.27
2023-03-01T02:06:36.217Z,17.15
2023-03-01T02:12:05.295Z,17.25
2023-03-01T02:17:32.223Z,15.68
2023-03-01T02:23:00.244Z,17.52
2023-03-01T02:28:40.222Z,15.05
2023-03-01T02:34:04.233Z,15.93
2023-03-01T02:39:34.231Z,15.85
2023-03-01T02:45:01.271Z,16.63
2023-03-01T02:50:51.271Z,17.92
2023-03-01T02:56:23.259Z,17.35
2023-03-01T03:01:51.258Z,16.52
2023-03-01T03:07:16.244Z,17.70
2023-03-01T03:12:41.256Z,16.30
2023-03-01T03:18:09.264Z,16.10
2023-03-01T03:23:34.264Z,16.75
2023-03-01T03:28:58.264Z,17.73
2023-03-01T03:34:26.249Z,16.02
2023-03-01T03:39:50.254Z,16.35
2023-03-01T03:45:16.281Z,17.40
2023-03-01T03:50:50.362Z,17.90
2023-03-01T03:56:16.340Z,18.52
2023-03-01T04:01:40.291Z,19.38
2023-03-01T04:07:08.266Z,18.08
2023-03-01T04:12:32.326Z,16.35
2023-03-01T04:17:57.270Z,17.27
2023-03-01T04:23:28.269Z,16.88
2023-03-01T04:28:55.301Z,17.48
2023-03-01T04:34:21.331Z,16.85
2023-03-01T04:39:53.282Z,17.42
2023-03-01T04:45:20.338Z,19.30
2023-03-01T04:50:51.281Z,18.05
2023-03-01T04:56:21.365Z,17.67
2023-03-01T05:01:45.293Z,18.73
2023-03-01T05:07:10.307Z,18.48
2023-03-01T05:12:37.294Z,18.95
2023-03-01T05:18:03.276Z,18.63
2023-03-01T05:23:27.734Z,19.98
2023-03-01T05:28:56.339Z,20.48
2023-03-01T05:34:21.319Z,20.17
2023-03-01T05:39:48.895Z,19.80
2023-03-01T05:45:18.312Z,20.63
2023-03-01T05:50:53.305Z,19.45
2023-03-01T05:56:18.302Z,18.88
2023-03-01T06:01:46.308Z,18.42
2023-03-01T06:07:11.303Z,18.77
2023-03-01T06:12:35.334Z,20.65
2023-03-01T06:18:05.304Z,18.88
2023-03-01T06:23:30.306Z,20.80
2023-03-01T06:28:56.372Z,22.05
2023-03-01T06:34:23.341Z,19.17
2023-03-01T06:39:48.677Z,21.40
2023-03-01T06:45:12.906Z,20.13
2023-03-01T06:50:42.379Z,19.98
2023-03-01T06:56:12.331Z,21.77
2023-03-01T07:01:37.374Z,23.52
2023-03-01T07:07:05.312Z,22.23
2023-03-01T07:12:31.338Z,23.85
2023-03-01T07:17:58.333Z,22.13
2023-03-01T07:23:26.636Z,33.85
2023-03-01T07:28:51.833Z,23.20
2023-03-01T07:34:18.365Z,30.77
2023-03-01T07:39:46.330Z,23.00
2023-03-01T07:45:11.356Z,22.77
2023-03-01T07:50:36.337Z,22.23
2023-03-01T07:56:17.317Z,22.17
2023-03-01T08:01:42.420Z,19.15
2023-03-01T08:07:06.818Z,18.95
2023-03-01T08:12:35.705Z,17.33
2023-03-01T08:18:00.369Z,17.10
2023-03-01T08:23:25.339Z,17.30
2023-03-01T08:28:52.348Z,18.13
2023-03-01T08:34:20.342Z,13.77
2023-03-01T08:39:45.387Z,14.20
2023-03-01T08:45:13.339Z,11.93
2023-03-01T08:50:44.390Z,13.13
2023-03-01T08:56:10.378Z,11.45
2023-03-01T09:01:37.380Z,10.85
2023-03-01T09:07:02.373Z,9.98
2023-03-01T09:12:27.385Z,10.95
2023-03-01T09:17:55.352Z,10.80
2023-03-01T09:23:19.380Z,12.05
2023-03-01T09:28:44.377Z,11.07
2023-03-01T09:34:11.430Z,10.32
2023-03-01T09:39:36.386Z,11.20
2023-03-01T09:45:08.399Z,10.20
2023-03-01T09:50:38.404Z,10.18
2023-03-01T09:56:08.414Z,9.40
2023-03-01T10:01:47.410Z,10.00
2023-03-01T10:07:36.414Z,9.52
2023-03-01T10:13:02.393Z,9.35
2023-03-01T10:18:31.385Z,9.00
2023-03-01T10:23:58.418Z,8.02
2023-03-01T10:29:24.409Z,8.48
2023-03-01T10:34:51.424Z,9.52
2023-03-01T10:40:21.400Z,8.82
2023-03-01T10:45:51.401Z,8.63
2023-03-01T10:51:18.376Z,8.43
2023-03-01T10:56:45.410Z,8.70
2023-03-01T11:02:33.504Z,8.82
2023-03-01T11:07:59.446Z,9.98
2023-03-01T11:13:33.436Z,11.13
2023-03-01T11:19:07.441Z,8.15
2023-03-01T11:24:33.406Z,8.25
2023-03-01T11:30:06.395Z,8.25
2023-03-01T11:35:34.456Z,8.05
2023-03-01T11:41:06.431Z,8.52
2023-03-01T11:47:07.567Z,8.95
2023-03-01T11:52:43.436Z,8.53
2023-03-01T11:58:24.481Z,8.15
2023-03-01T12:04:19.490Z,8.13
2023-03-01T12:09:57.419Z,8.35
2023-03-01T12:15:55.443Z,8.00
2023-03-01T12:21:34.445Z,8.80
2023-03-01T12:27:13.420Z,7.55
2023-03-01T12:32:52.476Z,7.68
2023-03-01T12:38:33.474Z,8.85
2023-03-01T12:44:08.444Z,9.20
2023-03-01T12:49:44.459Z,9.52
2023-03-01T12:55:17.438Z,11.13
2023-03-01T13:00:49.467Z,8.77
2023-03-01T13:06:24.227Z,7.32
2023-03-01T13:11:53.477Z,7.75
2023-03-01T13:17:42.464Z,6.72
2023-03-01T13:23:19.516Z,6.85
2023-03-01T13:29:04.491Z,6.50
2023-03-01T13:34:56.474Z,5.90
2023-03-01T13:40:51.508Z,6.68
2023-03-01T13:46:24.593Z,6.63
2023-03-01T13:51:49.495Z,8.98
2023-03-01T13:57:15.513Z,5.72
2023-03-01T14:02:53.694Z,5.78
2023-03-01T14:08:32.527Z,6.43
2023-03-01T14:14:11.541Z,8.88
2023-03-01T14:19:40.501Z,7.82
2023-03-01T14:25:07.484Z,6.25
2023-03-01T14:30:35.503Z,6.85
2023-03-01T14:36:09.536Z,6.15
2023-03-01T14:41:38.519Z,5.72
2023-03-01T14:47:04.527Z,8.10
2023-03-01T14:52:35.476Z,7.07
2023-03-01T14:58:03.162Z,8.23
2023-03-01T15:03:44.533Z,11.00
2023-03-01T15:09:12.534Z,5.70
2023-03-01T15:15:03.857Z,6.68
2023-03-01T15:20:33.533Z,6.20
2023-03-01T15:26:04.511Z,6.53
2023-03-01T15:31:32.545Z,7.63
2023-03-01T15:37:00.532Z,7.25
2023-03-01T15:42:48.524Z,7.80
2023-03-01T15:48:14.522Z,6.03
2023-03-01T15:53:49.436Z,5.50
2023-03-01T15:59:21.592Z,5.90
2023-03-01T16:04:46.547Z,4.80
2023-03-01T16:10:10.548Z,6.05
2023-03-01T16:15:40.653Z,5.25
2023-03-01T16:21:04.518Z,6.00
2023-03-01T16:26:29.782Z,7.25
2023-03-01T16:31:56.645Z,8.82
2023-03-01T16:37:21.742Z,6.15
2023-03-01T16:42:49.566Z,6.13
2023-03-01T16:48:17.540Z,6.38
2023-03-01T16:53:44.355Z,6.05
2023-03-01T16:59:09.567Z,7.20
2023-03-01T17:04:43.647Z,6.93
2023-03-01T17:10:08.604Z,8.75
2023-03-01T17:15:34.583Z,7.72
2023-03-01T17:21:02.656Z,7.60
2023-03-01T17:26:27.611Z,7.30
2023-03-01T17:31:52.710Z,9.45
2023-03-01T17:37:19.682Z,8.10
2023-03-01T17:42:44.682Z,9.10
2023-03-01T17:48:10.634Z,8.15
2023-03-01T17:53:38.637Z,9.82
2023-03-01T17:59:05.659Z,7.05
2023-03-01T18:04:37.729Z,10.95
2023-03-01T18:10:05.659Z,7.15
2023-03-01T18:15:29.660Z,8.45
2023-03-01T18:20:54.642Z,7.65
2023-03-01T18:26:31.118Z,8.00
2023-03-01T18:32:03.642Z,9.73
2023-03-01T18:37:28.645Z,8.65
2023-03-01T18:42:56.662Z,8.75
2023-03-01T18:48:22.628Z,8.13
2023-03-01T18:53:46.585Z,8.07
2023-03-01T18:59:14.587Z,7.55
2023-03-01T19:04:46.799Z,8.40
2023-03-01T19:10:11.600Z,7.43
2023-03-01T19:15:38.650Z,9.25
2023-03-01T19:21:08.615Z,7.55
2023-03-01T19:26:35.088Z,9.60
2023-03-01T19:32:02.678Z,8.18
2023-03-01T19:37:26.634Z,7.22
2023-03-01T19:42:51.609Z,7.90
2023-03-01T19:48:18.664Z,8.30
2023-03-01T19:53:43.650Z,7.97
2023-03-01T19:59:10.657Z,9.18
2023-03-01T20:04:44.635Z,7.85
2023-03-01T20:10:09.633Z,7.55
2023-03-01T20:15:34.630Z,8.07
2023-03-01T20:21:03.899Z,8.93
2023-03-01T20:26:29.872Z,9.40
2023-03-01T20:31:54.745Z,8.85
2023-03-01T20:37:21.626Z,7.53
2023-03-01T20:42:46.629Z,6.85
2023-03-01T20:48:10.667Z,7.35
2023-03-01T20:53:38.652Z,7.32
2023-03-01T20:59:04.640Z,7.68
2023-03-01T21:04:35.637Z,8.20
2023-03-01T21:10:03.698Z,7.55
2023-03-01T21:15:29.631Z,9.60
2023-03-01T21:20:54.671Z,9.30
2023-03-01T21:26:23.679Z,8.07
2023-03-01T21:31:48.699Z,7.03
2023-03-01T21:37:12.682Z,7.85
2023-03-01T21:42:41.644Z,7.10
2023-03-01T21:48:05.663Z,7.15
2023-03-01T21:53:30.676Z,7.97
2023-03-01T21:58:57.679Z,7.03
2023-03-01T22:04:29.683Z,7.15
2023-03-01T22:09:54.696Z,7.03
2023-03-01T22:15:22.668Z,6.50
2023-03-01T22:20:48.670Z,6.88
2023-03-01T22:26:12.689Z,8.05
2023-03-01T22:31:40.899Z,7.50
2023-03-01T22:37:05.689Z,6.85
2023-03-01T22:42:30.821Z,8.18
2023-03-01T22:47:57.789Z,7.65
2023-03-01T22:53:23.663Z,7.93
2023-03-01T22:58:47.708Z,7.80
2023-03-01T23:04:21.727Z,9.85
2023-03-01T23:09:46.784Z,7.95
2023-03-01T23:15:10.691Z,6.32
2023-03-01T23:20:38.693Z,6.00
2023-03-01T23:26:10.712Z,6.95
2023-03-01T23:31:36.684Z,7.30
2023-03-01T23:37:04.753Z,8.85
2023-03-01T23:42:29.693Z,6.47
2023-03-01T23:47:53.807Z,6.00
2023-03-01T23:53:24.719Z,10.00
2023-03-01T23:58:48.681Z,8.45
